Time;durP1;ratioP1;P1;durP2;ratioP2;P2;SDS_P1;SDS_P2;PMS_P1;PMS_P2;Temp;Humidity;BMP_temperature;BMP_pressure;BME280_temperature;BME280_humidity;BME280_pressure;Samples;Min_cycle;Max_cycle;Signal;HPM_P1;HPM_P2
2021/08/28 00:02:02;;;;;;;19.88;5.30;;;;;;;;;;5086169;28;20550;-77
2021/08/28 00:04:28;;;;;;;16.60;5.47;;;;;;;;;;5119498;28;20063;-76
2021/08/28 00:06:54;;;;;;;15.07;6.35;;;;;;;;;;5103949;28;20036;-76
2021/08/28 00:09:20;;;;;;;17.20;5.95;;;;;;;;;;5084727;28;20071;-76
2021/08/28 00:11:47;;;;;;;17.83;6.30;;;;;;;;;;5088386;28;20060;-77
2021/08/28 00:14:13;;;;;;;17.05;6.25;;;;;;;;;;5088703;28;20043;-76
2021/08/28 00:16:39;;;;;;;13.90;6.57;;;;;;;;;;5086717;28;20043;-76
2021/08/28 00:19:05;;;;;;;14.38;6.28;;;;;;;;;;5119654;28;20471;-76
2021/08/28 00:21:34;;;;;;;16.20;6.05;;;;;;;;;;5085919;28;20375;-76
2021/08/28 00:24:00;;;;;;;15.75;7.03;;;;;;;;;;5086045;28;20109;-75
2021/08/28 00:26:26;;;;;;;15.00;7.47;;;;;;;;;;5087692;28;20124;-76
2021/08/28 00:28:52;;;;;;;18.90;6.72;;;;;;;;;;5087539;28;20040;-76
2021/08/28 00:31:18;;;;;;;17.05;7.30;;;;;;;;;;5086563;28;20173;-77
2021/08/28 00:33:44;;;;;;;21.02;7.50;;;;;;;;;;5087810;28;20037;-77
2021/08/28 00:36:10;;;;;;;18.17;7.20;;;;;;;;;;5102950;28;20067;-76
2021/08/28 00:38:36;;;;;;;20.30;7.47;;;;;;;;;;5088128;28;20044;-76
2021/08/28 00:41:03;;;;;;;18.23;8.60;;;;;;;;;;5083650;28;20036;-77
2021/08/28 00:43:29;;;;;;;20.92;7.55;;;;;;;;;;5084444;28;20373;-76
2021/08/28 00:45:55;;;;;;;13.77;7.18;;;;;;;;;;5116891;28;20042;-77
2021/08/28 00:48:21;;;;;;;16.17;7.28;;;;;;;;;;5069680;28;20052;-76
2021/08/28 00:50:47;;;;;;;21.45;7.68;;;;;;;;;;5116347;28;20048;-77
2021/08/28 00:53:15;;;;;;;16.52;7.72;;;;;;;;;;5119367;28;20068;-76
2021/08/28 00:55:43;;;;;;;19.33;9.65;;;;;;;;;;5090203;28;20111;-76
2021/08/28 00:58:09;;;;;;;18.70;7.85;;;;;;;;;;5082984;28;20044;-76
2021/08/28 01:00:46;;;;;;;16.45;8.02;;;;;;;;;;5090457;28;20049;-76
2021/08/28 01:03:13;;;;;;;17.08;8.63;;;;;;;;;;5088774;28;20066;-75
2021/08/28 01:05:45;;;;;;;19.95;7.38;;;;;;;;;;5088386;28;20070;-76
2021/08/28 01:08:11;;;;;;;14.43;6.88;;;;;;;;;;5124455;27;20044;-77
2021/08/28 01:10:39;;;;;;;15.38;6.20;;;;;;;;;;5086157;28;20052;-77
2021/08/28 01:13:11;;;;;;;15.18;6.85;;;;;;;;;;5087488;28;20441;-77
2021/08/28 01:15:38;;;;;;;13.48;5.97;;;;;;;;;;5083045;28;20348;-76
2021/08/28 01:18:05;;;;;;;17.67;5.18;;;;;;;;;;5087762;28;20044;-77
2021/08/28 01:20:53;;;;;;;11.30;6.30;;;;;;;;;;5089287;28;20046;-74
2021/08/28 01:23:19;;;;;;;14.75;5.55;;;;;;;;;;5088243;28;20111;-76
2021/08/28 01:25:46;;;;;;;12.23;5.72;;;;;;;;;;5123509;27;20049;-76
2021/08/28 01:28:13;;;;;;;14.95;5.20;;;;;;;;;;5089712;28;20066;-77
2021/08/28 01:30:42;;;;;;;15.32;5.40;;;;;;;;;;5091611;28;20071;-75
2021/08/28 01:33:09;;;;;;;11.43;5.07;;;;;;;;;;5088654;28;20039;-77
2021/08/28 01:35:36;;;;;;;11.85;4.63;;;;;;;;;;5088181;28;20437;-76
2021/08/28 01:38:03;;;;;;;11.10;4.32;;;;;;;;;;5089508;28;20032;-78
2021/08/28 01:40:29;;;;;;;11.88;4.50;;;;;;;;;;5124564;27;20068;-76
2021/08/28 01:42:56;;;;;;;10.68;3.97;;;;;;;;;;5089837;28;20132;-77
2021/08/28 01:45:23;;;;;;;11.35;4.80;;;;;;;;;;5087089;28;20052;-76
2021/08/28 01:47:51;;;;;;;7.70;4.25;;;;;;;;;;5087451;28;20050;-76
2021/08/28 01:50:19;;;;;;;16.17;5.32;;;;;;;;;;5087883;28;20040;-76
2021/08/28 01:52:45;;;;;;;10.68;4.82;;;;;;;;;;5081158;28;20112;-76
2021/08/28 01:55:12;;;;;;;11.05;4.90;;;;;;;;;;5089485;28;20493;-77
2021/08/28 01:57:38;;;;;;;11.05;4.78;;;;;;;;;;5089262;28;20386;-77
2021/08/28 02:00:04;;;;;;;9.90;5.43;;;;;;;;;;5090018;28;20408;-77
2021/08/28 02:02:30;;;;;;;10.52;5.50;;;;;;;;;;5087463;28;20082;-76
2021/08/28 02:04:56;;;;;;;17.90;6.38;;;;;;;;;;5089036;28;20174;-77
2021/08/28 02:07:38;;;;;;;12.80;5.05;;;;;;;;;;5087917;28;20036;-76
2021/08/28 02:10:17;;;;;;;11.68;5.30;;;;;;;;;;5122970;27;20032;-76
2021/08/28 02:12:45;;;;;;;15.82;6.40;;;;;;;;;;5119910;27;20137;-75
2021/08/28 02:15:14;;;;;;;16.75;6.53;;;;;;;;;;5086001;28;20160;-76
2021/08/28 02:17:54;;;;;;;17.45;7.20;;;;;;;;;;5083838;28;20040;-77
2021/08/28 02:20:24;;;;;;;17.17;6.97;;;;;;;;;;5087283;28;20425;-75
2021/08/28 02:22:56;;;;;;;17.42;6.97;;;;;;;;;;5087058;28;20104;-76
2021/08/28 02:25:28;;;;;;;16.25;7.18;;;;;;;;;;5085210;28;20111;-76
2021/08/28 02:27:56;;;;;;;20.75;6.70;;;;;;;;;;5115247;27;20168;-77
2021/08/28 02:30:22;;;;;;;14.25;6.72;;;;;;;;;;5121138;27;20074;-76
2021/08/28 02:32:50;;;;;;;11.73;6.32;;;;;;;;;;5088329;28;20360;-77
2021/08/28 02:35:16;;;;;;;13.48;6.18;;;;;;;;;;5087234;28;20036;-76
2021/08/28 02:37:42;;;;;;;17.17;5.80;;;;;;;;;;5085551;28;21618;-77
2021/08/28 02:40:11;;;;;;;14.85;6.00;;;;;;;;;;5122572;27;20047;-76
2021/08/28 02:42:40;;;;;;;15.80;5.78;;;;;;;;;;5076249;28;20076;-76
2021/08/28 02:45:07;;;;;;;12.10;5.88;;;;;;;;;;5122081;27;20039;-77
2021/08/28 02:47:33;;;;;;;18.48;6.22;;;;;;;;;;5087368;28;20114;-76
2021/08/28 02:50:00;;;;;;;14.48;5.82;;;;;;;;;;5090289;28;20032;-77
2021/08/28 02:52:26;;;;;;;12.55;5.53;;;;;;;;;;5119447;27;20414;-76
2021/08/28 02:54:55;;;;;;;16.50;5.80;;;;;;;;;;5088115;28;20425;-77
2021/08/28 02:57:21;;;;;;;15.15;6.10;;;;;;;;;;5090544;28;20390;-77
2021/08/28 02:59:48;;;;;;;12.75;6.20;;;;;;;;;;5086792;28;20044;-77
2021/08/28 03:02:16;;;;;;;15.73;6.32;;;;;;;;;;5083521;28;20125;-78
2021/08/28 03:04:42;;;;;;;14.57;6.55;;;;;;;;;;5087533;28;20047;-77
2021/08/28 03:07:08;;;;;;;19.48;6.35;;;;;;;;;;5087332;28;20036;-76
2021/08/28 03:09:36;;;;;;;17.75;6.22;;;;;;;;;;5088597;28;20406;-77
2021/08/28 03:12:02;;;;;;;15.60;7.30;;;;;;;;;;5088862;28;20127;-77
2021/08/28 03:14:28;;;;;;;12.50;6.53;;;;;;;;;;5085641;28;20074;-76
2021/08/28 03:16:56;;;;;;;11.18;6.15;;;;;;;;;;5088589;28;20032;-77
2021/08/28 03:19:23;;;;;;;27.65;7.70;;;;;;;;;;5117133;27;20040;-77
2021/08/28 03:21:50;;;;;;;16.05;6.95;;;;;;;;;;5085878;28;20483;-77
2021/08/28 03:24:18;;;;;;;19.75;7.88;;;;;;;;;;5088714;28;20216;-77
2021/08/28 03:26:44;;;;;;;13.13;6.65;;;;;;;;;;5120053;27;20036;-76
2021/08/28 03:29:11;;;;;;;18.30;6.80;;;;;;;;;;5088710;28;20044;-77
2021/08/28 03:31:37;;;;;;;19.05;7.43;;;;;;;;;;5088043;28;20048;-77
2021/08/28 03:34:03;;;;;;;15.15;7.43;;;;;;;;;;5088651;28;20036;-78
2021/08/28 03:36:31;;;;;;;15.55;7.13;;;;;;;;;;5117806;27;20129;-76
2021/08/28 03:38:57;;;;;;;13.63;7.60;;;;;;;;;;5083669;28;20044;-77
2021/08/28 03:41:23;;;;;;;20.55;8.65;;;;;;;;;;5088549;28;20036;-79
2021/08/28 03:43:49;;;;;;;23.38;9.50;;;;;;;;;;5117199;27;20051;-77
2021/08/28 03:46:15;;;;;;;24.25;9.00;;;;;;;;;;5088291;28;20044;-77
2021/08/28 03:48:41;;;;;;;17.65;8.02;;;;;;;;;;5120769;27;20036;-76
2021/08/28 03:51:08;;;;;;;20.95;9.15;;;;;;;;;;5069059;28;20044;-76
2021/08/28 03:53:34;;;;;;;21.08;8.23;;;;;;;;;;5085290;28;20183;-77
2021/08/28 03:56:00;;;;;;;19.80;8.02;;;;;;;;;;5070727;28;21662;-77
2021/08/28 03:58:26;;;;;;;16.48;7.75;;;;;;;;;;5085254;28;20483;-77
2021/08/28 04:00:53;;;;;;;17.63;8.07;;;;;;;;;;5117639;28;20123;-77
2021/08/28 04:03:19;;;;;;;22.83;8.18;;;;;;;;;;5088005;28;20048;-77
2021/08/28 04:05:45;;;;;;;17.95;8.38;;;;;;;;;;5085235;28;20051;-78
2021/08/28 04:08:11;;;;;;;17.27;8.27;;;;;;;;;;5087549;28;20491;-76
2021/08/28 04:10:37;;;;;;;16.63;9.00;;;;;;;;;;5086777;28;20398;-77
2021/08/28 04:13:04;;;;;;;15.88;8.13;;;;;;;;;;5120493;28;20055;-77
2021/08/28 04:15:30;;;;;;;14.40;7.82;;;;;;;;;;5117034;28;20036;-77
2021/08/28 04:17:56;;;;;;;14.18;6.45;;;;;;;;;;5085826;28;20047;-77
2021/08/28 04:20:22;;;;;;;20.70;7.75;;;;;;;;;;5088751;28;20118;-78
2021/08/28 04:22:49;;;;;;;18.02;7.72;;;;;;;;;;5085536;28;20039;-78
2021/08/28 04:25:15;;;;;;;17.45;7.68;;;;;;;;;;5118949;28;20119;-77
2021/08/28 04:27:41;;;;;;;15.88;7.13;;;;;;;;;;5087585;28;20089;-77
2021/08/28 04:30:07;;;;;;;18.85;6.85;;;;;;;;;;5089433;28;20118;-75
2021/08/28 04:32:34;;;;;;;15.45;6.82;;;;;;;;;;5091955;28;20035;-78
2021/08/28 04:35:00;;;;;;;20.60;7.75;;;;;;;;;;5089285;28;20048;-78
2021/08/28 04:37:26;;;;;;;16.15;7.88;;;;;;;;;;5092832;28;20139;-76
2021/08/28 04:39:52;;;;;;;17.38;6.78;;;;;;;;;;5087220;28;20048;-77
2021/08/28 04:42:19;;;;;;;13.27;7.20;;;;;;;;;;5090478;28;20040;-78
2021/08/28 04:44:45;;;;;;;15.88;7.00;;;;;;;;;;5090868;28;20474;-79
2021/08/28 04:47:11;;;;;;;19.45;7.55;;;;;;;;;;5090354;28;20044;-77
2021/08/28 04:49:37;;;;;;;16.73;7.20;;;;;;;;;;5122078;27;20071;-76
2021/08/28 04:52:04;;;;;;;11.73;5.75;;;;;;;;;;5089347;28;20380;-77
2021/08/28 04:54:31;;;;;;;18.30;7.13;;;;;;;;;;5089749;28;20040;-77
2021/08/28 04:56:57;;;;;;;18.77;6.72;;;;;;;;;;5101086;28;20083;-77
2021/08/28 04:59:23;;;;;;;16.73;6.43;;;;;;;;;;5122558;27;20485;-77
2021/08/28 05:01:49;;;;;;;11.57;6.30;;;;;;;;;;5090413;28;20054;-77
2021/08/28 05:04:15;;;;;;;14.48;6.30;;;;;;;;;;5091329;28;20036;-77
2021/08/28 05:06:42;;;;;;;15.93;6.32;;;;;;;;;;5090173;28;20043;-78
2021/08/28 05:09:08;;;;;;;17.77;6.35;;;;;;;;;;5091543;28;20050;-77
2021/08/28 05:11:34;;;;;;;16.98;6.05;;;;;;;;;;5088270;28;20496;-78
2021/08/28 05:14:00;;;;;;;20.25;6.72;;;;;;;;;;5088308;28;20032;-77
2021/08/28 05:16:26;;;;;;;20.92;6.78;;;;;;;;;;5120699;27;20048;-77
2021/08/28 05:18:52;;;;;;;15.20;6.40;;;;;;;;;;5090077;28;20043;-76
2021/08/28 05:21:18;;;;;;;15.98;5.70;;;;;;;;;;5090536;28;20128;-77
2021/08/28 05:23:44;;;;;;;12.13;6.00;;;;;;;;;;5090495;28;20043;-76
2021/08/28 05:26:10;;;;;;;16.80;6.07;;;;;;;;;;5086649;28;20068;-76
2021/08/28 05:28:36;;;;;;;18.75;5.55;;;;;;;;;;5090997;28;20391;-76
2021/08/28 05:31:03;;;;;;;18.33;5.93;;;;;;;;;;5088558;28;20036;-78
2021/08/28 05:33:29;;;;;;;15.77;6.18;;;;;;;;;;5090947;28;20039;-77
2021/08/28 05:35:55;;;;;;;11.95;5.40;;;;;;;;;;5123681;27;20072;-77
2021/08/28 05:38:21;;;;;;;13.93;6.30;;;;;;;;;;5089714;28;20036;-78
2021/08/28 05:40:47;;;;;;;22.85;6.65;;;;;;;;;;5118616;27;20070;-77
2021/08/28 05:43:13;;;;;;;17.58;6.32;;;;;;;;;;5091526;28;20039;-77
2021/08/28 05:45:39;;;;;;;15.90;6.75;;;;;;;;;;5090390;28;20040;-77
2021/08/28 05:48:05;;;;;;;13.38;5.78;;;;;;;;;;5088166;28;20067;-78
2021/08/28 05:50:31;;;;;;;13.90;5.65;;;;;;;;;;5122211;27;20040;-77
2021/08/28 05:52:57;;;;;;;17.83;5.63;;;;;;;;;;5117104;27;20080;-78
2021/08/28 05:55:23;;;;;;;15.40;5.93;;;;;;;;;;5071737;28;20040;-78
2021/08/28 05:57:49;;;;;;;14.95;5.85;;;;;;;;;;5085769;28;20044;-77
2021/08/28 06:00:15;;;;;;;18.88;5.93;;;;;;;;;;5089773;28;20619;-78
2021/08/28 06:02:41;;;;;;;16.50;5.95;;;;;;;;;;5121182;27;20463;-78
2021/08/28 06:05:11;;;;;;;16.35;6.72;;;;;;;;;;5087780;28;20036;-78
2021/08/28 06:07:37;;;;;;;15.55;5.63;;;;;;;;;;5089493;28;20056;-76
2021/08/28 06:10:04;;;;;;;14.73;5.47;;;;;;;;;;5089212;28;20410;-77
2021/08/28 06:12:31;;;;;;;11.90;5.15;;;;;;;;;;5119355;27;20044;-79
2021/08/28 06:14:57;;;;;;;13.93;5.32;;;;;;;;;;5119618;27;20489;-77
2021/08/28 06:17:23;;;;;;;14.70;5.95;;;;;;;;;;5088243;28;20046;-78
2021/08/28 06:19:49;;;;;;;14.25;5.28;;;;;;;;;;5087024;28;20106;-78
2021/08/28 06:22:15;;;;;;;15.15;5.70;;;;;;;;;;5119660;27;20032;-78
2021/08/28 06:24:41;;;;;;;14.63;6.10;;;;;;;;;;5120012;27;20097;-78
2021/08/28 06:27:08;;;;;;;13.43;5.45;;;;;;;;;;5088816;28;20161;-77
2021/08/28 06:29:34;;;;;;;14.65;5.65;;;;;;;;;;5088908;28;20063;-77
2021/08/28 06:32:01;;;;;;;17.83;5.47;;;;;;;;;;5086826;28;20043;-77
2021/08/28 06:34:27;;;;;;;14.00;5.93;;;;;;;;;;5120870;27;20044;-78
2021/08/28 06:36:53;;;;;;;11.98;5.18;;;;;;;;;;5088594;28;20455;-77
2021/08/28 06:39:19;;;;;;;17.25;5.60;;;;;;;;;;5087838;28;20039;-79
2021/08/28 06:41:45;;;;;;;13.30;4.72;;;;;;;;;;5087611;28;20040;-79
2021/08/28 06:44:11;;;;;;;14.30;5.35;;;;;;;;;;5100630;28;20072;-78
2021/08/28 06:46:37;;;;;;;14.73;5.88;;;;;;;;;;5088015;28;20040;-79
2021/08/28 06:49:04;;;;;;;10.27;4.93;;;;;;;;;;5087021;28;20115;-77
2021/08/28 06:51:30;;;;;;;9.55;4.95;;;;;;;;;;5118188;27;20135;-77
2021/08/28 06:53:57;;;;;;;14.63;5.90;;;;;;;;;;5119575;27;20035;-78
2021/08/28 06:56:23;;;;;;;14.82;4.85;;;;;;;;;;5089755;28;20121;-80
2021/08/28 06:58:49;;;;;;;8.13;4.88;;;;;;;;;;5087913;28;20521;-77
2021/08/28 07:01:15;;;;;;;9.00;5.20;;;;;;;;;;5089951;28;20382;-77
2021/08/28 07:03:41;;;;;;;9.50;5.03;;;;;;;;;;5118292;27;20052;-77
2021/08/28 07:06:07;;;;;;;9.45;4.70;;;;;;;;;;5106014;28;20097;-78
2021/08/28 07:08:33;;;;;;;10.77;5.38;;;;;;;;;;5119421;27;20071;-79
2021/08/28 07:10:59;;;;;;;9.07;4.70;;;;;;;;;;5117350;27;20508;-78
2021/08/28 07:13:26;;;;;;;9.20;4.10;;;;;;;;;;5120244;27;20475;-80
2021/08/28 07:15:52;;;;;;;8.48;4.57;;;;;;;;;;5088393;28;20123;-77
2021/08/28 07:18:18;;;;;;;7.75;4.55;;;;;;;;;;5076008;28;20028;-80
2021/08/28 07:20:44;;;;;;;10.43;4.93;;;;;;;;;;5076631;28;20372;-86
2021/08/28 07:23:11;;;;;;;7.10;4.15;;;;;;;;;;5088681;28;20036;-82
2021/08/28 07:25:37;;;;;;;16.27;4.63;;;;;;;;;;5087001;28;20378;-80
2021/08/28 07:28:04;;;;;;;7.85;4.15;;;;;;;;;;5088205;28;20047;-81
2021/08/28 07:30:30;;;;;;;8.05;4.22;;;;;;;;;;5098215;28;20051;-83
2021/08/28 07:32:57;;;;;;;8.55;4.38;;;;;;;;;;5085453;28;20052;-77
2021/08/28 07:35:23;;;;;;;7.38;4.28;;;;;;;;;;5078073;28;20049;-83
2021/08/28 07:37:49;;;;;;;5.15;4.07;;;;;;;;;;5087813;28;20051;-83
2021/08/28 07:40:15;;;;;;;10.75;3.90;;;;;;;;;;5072673;28;20119;-83
2021/08/28 07:42:41;;;;;;;11.15;3.83;;;;;;;;;;5086704;28;20040;-83
2021/08/28 07:45:08;;;;;;;10.45;4.22;;;;;;;;;;5083134;28;20076;-82
2021/08/28 07:47:34;;;;;;;16.40;4.22;;;;;;;;;;5111138;28;20040;-83
2021/08/28 07:50:00;;;;;;;8.95;4.22;;;;;;;;;;5106653;27;20350;-81
2021/08/28 07:52:26;;;;;;;9.25;4.05;;;;;;;;;;5079741;28;20315;-81
2021/08/28 07:54:52;;;;;;;7.20;3.63;;;;;;;;;;5082393;28;20043;-76
2021/08/28 07:57:18;;;;;;;10.05;3.97;;;;;;;;;;5085808;28;20126;-81
2021/08/28 07:59:44;;;;;;;8.00;3.80;;;;;;;;;;5098385;28;20399;-81
2021/08/28 08:02:10;;;;;;;12.80;3.88;;;;;;;;;;5081751;28;20041;-82
2021/08/28 08:04:36;;;;;;;10.88;4.20;;;;;;;;;;5086929;28;20044;-81
2021/08/28 08:07:02;;;;;;;12.57;4.10;;;;;;;;;;5092193;28;20040;-77
2021/08/28 08:09:29;;;;;;;10.52;4.22;;;;;;;;;;5103676;28;20048;-81
2021/08/28 08:11:55;;;;;;;7.03;3.58;;;;;;;;;;5089796;28;20060;-80
2021/08/28 08:14:21;;;;;;;9.57;4.10;;;;;;;;;;5081681;28;20268;-82
2021/08/28 08:16:47;;;;;;;7.72;3.10;;;;;;;;;;5094354;28;20405;-81
2021/08/28 08:19:13;;;;;;;10.23;3.58;;;;;;;;;;5071852;28;20392;-79
2021/08/28 08:21:39;;;;;;;7.65;3.30;;;;;;;;;;5102463;28;20039;-80
2021/08/28 08:24:05;;;;;;;13.10;3.33;;;;;;;;;;5123250;27;20468;-81
2021/08/28 08:26:32;;;;;;;9.23;2.90;;;;;;;;;;5087478;28;20043;-82
2021/08/28 08:28:59;;;;;;;10.43;3.25;;;;;;;;;;5089229;28;20378;-81
2021/08/28 08:31:25;;;;;;;8.85;3.10;;;;;;;;;;5083987;28;20080;-82
2021/08/28 08:33:51;;;;;;;7.88;3.13;;;;;;;;;;5107277;28;20503;-81
2021/08/28 08:36:17;;;;;;;7.28;2.88;;;;;;;;;;5084201;28;20101;-81
2021/08/28 08:38:43;;;;;;;5.63;2.67;;;;;;;;;;5093002;28;20400;-86
2021/08/28 08:41:10;;;;;;;8.77;2.65;;;;;;;;;;5091190;28;20040;-85
2021/08/28 08:43:38;;;;;;;9.32;2.42;;;;;;;;;;5085720;28;20048;-81
2021/08/28 08:46:04;;;;;;;7.68;2.92;;;;;;;;;;5083970;28;20628;-84
2021/08/28 08:48:32;;;;;;;8.38;2.42;;;;;;;;;;5089634;28;20082;-81
2021/08/28 08:50:59;;;;;;;10.50;3.00;;;;;;;;;;5080303;28;20491;-87
2021/08/28 08:53:29;;;;;;;6.60;2.55;;;;;;;;;;5089755;28;20390;-84
2021/08/28 08:55:56;;;;;;;5.07;2.50;;;;;;;;;;5075079;28;20044;-84
2021/08/28 08:58:22;;;;;;;8.30;2.63;;;;;;;;;;5074816;28;20044;-82
2021/08/28 09:00:48;;;;;;;7.90;3.05;;;;;;;;;;5076202;28;20048;-80
2021/08/28 09:03:15;;;;;;;6.55;2.38;;;;;;;;;;5069542;28;20471;-79
2021/08/28 09:05:41;;;;;;;4.78;2.60;;;;;;;;;;5080141;28;20047;-81
2021/08/28 09:08:07;;;;;;;7.18;2.42;;;;;;;;;;5107167;27;20052;-79
2021/08/28 09:10:33;;;;;;;7.65;2.70;;;;;;;;;;5085529;28;20513;-78
2021/08/28 09:13:12;;;;;;;8.20;2.60;;;;;;;;;;5090206;28;20056;-79
2021/08/28 09:15:44;;;;;;;7.88;2.60;;;;;;;;;;5089513;28;20203;-78
2021/08/28 09:18:10;;;;;;;9.20;2.80;;;;;;;;;;5115154;27;20045;-77
2021/08/28 09:20:36;;;;;;;6.78;2.15;;;;;;;;;;5091292;28;20043;-77
2021/08/28 09:23:22;;;;;;;3.55;1.67;;;;;;;;;;5118378;27;20043;-77
2021/08/28 09:25:52;;;;;;;4.53;2.00;;;;;;;;;;5071447;28;20055;-79
2021/08/28 09:28:31;;;;;;;4.32;1.95;;;;;;;;;;5086786;28;20051;-78
2021/08/28 09:31:00;;;;;;;6.70;2.10;;;;;;;;;;5075982;28;20056;-79
2021/08/28 09:33:34;;;;;;;7.63;2.13;;;;;;;;;;5116300;27;20072;-79
2021/08/28 09:36:00;;;;;;;7.03;1.70;;;;;;;;;;5088068;28;20044;-79
2021/08/28 09:38:26;;;;;;;5.00;2.05;;;;;;;;;;5084788;28;20051;-82
2021/08/28 09:40:59;;;;;;;7.78;3.13;;;;;;;;;;5091006;28;20105;-81
2021/08/28 09:43:26;;;;;;;11.77;2.20;;;;;;;;;;5076732;28;20129;-78
2021/08/28 09:45:53;;;;;;;6.57;2.30;;;;;;;;;;5088171;28;20106;-77
2021/08/28 09:48:26;;;;;;;4.82;2.03;;;;;;;;;;5090791;28;20055;-79
2021/08/28 09:50:54;;;;;;;7.50;2.00;;;;;;;;;;5088873;28;20101;-81
2021/08/28 09:53:23;;;;;;;15.10;1.95;;;;;;;;;;5087943;28;20044;-76
2021/08/28 09:56:00;;;;;;;6.88;2.00;;;;;;;;;;5101932;28;20418;-79
2021/08/28 09:58:28;;;;;;;8.80;2.10;;;;;;;;;;5089484;28;20052;-80
2021/08/28 10:00:54;;;;;;;7.93;2.10;;;;;;;;;;5085177;28;20048;-78
2021/08/28 10:03:25;;;;;;;8.50;1.80;;;;;;;;;;5086132;28;20131;-79
2021/08/28 10:05:52;;;;;;;7.43;1.70;;;;;;;;;;5089049;28;20040;-79
2021/08/28 10:08:20;;;;;;;5.45;1.98;;;;;;;;;;5082690;28;20048;-77
2021/08/28 10:10:46;;;;;;;4.60;1.80;;;;;;;;;;5086835;28;20040;-81
2021/08/28 10:13:12;;;;;;;8.75;2.33;;;;;;;;;;5086045;28;20407;-79
2021/08/28 10:15:38;;;;;;;11.52;2.00;;;;;;;;;;5080351;28;20055;-78
2021/08/28 10:18:05;;;;;;;5.90;2.30;;;;;;;;;;5117071;27;20162;-78
2021/08/28 10:20:32;;;;;;;7.85;2.13;;;;;;;;;;5090049;28;20040;-77
2021/08/28 10:23:00;;;;;;;9.95;2.35;;;;;;;;;;5111364;27;20067;-78
2021/08/28 10:25:28;;;;;;;8.98;2.10;;;;;;;;;;5092310;27;20052;-80
2021/08/28 10:27:54;;;;;;;7.40;1.90;;;;;;;;;;5095562;28;20060;-78
2021/08/28 10:30:21;;;;;;;7.05;1.85;;;;;;;;;;5069592;28;20055;-76
2021/08/28 10:32:48;;;;;;;5.88;1.38;;;;;;;;;;5082010;28;20040;-80
2021/08/28 10:35:15;;;;;;;6.32;1.83;;;;;;;;;;5073096;28;20091;-77
2021/08/28 10:37:41;;;;;;;5.75;1.70;;;;;;;;;;5079350;28;20044;-87
2021/08/28 10:40:10;;;;;;;6.50;1.42;;;;;;;;;;5086890;28;20044;-86
2021/08/28 10:42:36;;;;;;;5.65;1.80;;;;;;;;;;5113319;27;20119;-80
2021/08/28 10:45:04;;;;;;;7.40;2.20;;;;;;;;;;5081311;28;20442;-78
2021/08/28 10:47:31;;;;;;;8.35;1.67;;;;;;;;;;5108640;27;20219;-82
2021/08/28 10:50:01;;;;;;;5.55;1.70;;;;;;;;;;5089619;28;20062;-83
2021/08/28 10:52:27;;;;;;;5.10;1.70;;;;;;;;;;5082438;28;20048;-81
2021/08/28 10:54:58;;;;;;;4.90;1.52;;;;;;;;;;5084104;28;20032;-80
2021/08/28 10:57:30;;;;;;;9.57;1.92;;;;;;;;;;5083333;28;20082;-81
2021/08/28 11:00:00;;;;;;;4.82;1.75;;;;;;;;;;5097538;28;20055;-76
2021/08/28 11:02:46;;;;;;;5.50;1.52;;;;;;;;;;5087128;28;20056;-79
2021/08/28 11:05:16;;;;;;;5.13;1.75;;;;;;;;;;5087283;28;20133;-82
2021/08/28 11:07:43;;;;;;;9.63;1.60;;;;;;;;;;5086140;28;20047;-78
2021/08/28 11:10:14;;;;;;;7.28;1.83;;;;;;;;;;5093229;28;20040;-80
2021/08/28 11:12:46;;;;;;;4.68;1.92;;;;;;;;;;5088493;28;20070;-80
2021/08/28 11:15:24;;;;;;;10.73;1.80;;;;;;;;;;5111426;27;20471;-79
2021/08/28 11:17:55;;;;;;;6.35;1.80;;;;;;;;;;5084195;28;20068;-80
2021/08/28 11:20:22;;;;;;;5.28;1.50;;;;;;;;;;5089303;28;20105;-82
2021/08/28 11:22:49;;;;;;;5.47;1.83;;;;;;;;;;5079415;28;20110;-84
2021/08/28 11:25:15;;;;;;;5.28;2.00;;;;;;;;;;5087263;28;20048;-83
2021/08/28 11:27:42;;;;;;;7.13;1.73;;;;;;;;;;5099049;28;20102;-82
2021/08/28 11:30:09;;;;;;;6.70;1.58;;;;;;;;;;5102444;28;20052;-77
2021/08/28 11:32:35;;;;;;;6.15;1.52;;;;;;;;;;5072838;28;20518;-82
2021/08/28 11:35:01;;;;;;;4.10;1.55;;;;;;;;;;5086926;28;20051;-81
2021/08/28 11:37:27;;;;;;;5.75;1.45;;;;;;;;;;5123021;27;20048;-82
2021/08/28 11:39:55;;;;;;;4.43;1.60;;;;;;;;;;5083168;28;20047;-83
2021/08/28 11:42:21;;;;;;;7.55;1.92;;;;;;;;;;5088614;28;20139;-82
2021/08/28 11:44:47;;;;;;;7.32;1.70;;;;;;;;;;5070583;28;20780;-80
2021/08/28 11:47:14;;;;;;;11.43;2.00;;;;;;;;;;5121011;27;20391;-80
2021/08/28 11:49:40;;;;;;;10.57;1.90;;;;;;;;;;5080642;28;20040;-80
2021/08/28 11:52:09;;;;;;;8.77;2.63;;;;;;;;;;5084450;28;20040;-79
2021/08/28 11:54:35;;;;;;;6.93;2.05;;;;;;;;;;5096484;28;20443;-79
2021/08/28 11:57:01;;;;;;;3.67;1.90;;;;;;;;;;5111694;27;20047;-84
2021/08/28 11:59:34;;;;;;;6.63;1.90;;;;;;;;;;5083745;28;20040;-78
2021/08/28 12:02:01;;;;;;;4.18;2.10;;;;;;;;;;5080770;28;20045;-78
2021/08/28 12:04:27;;;;;;;8.60;2.05;;;;;;;;;;5070179;28;20049;-77
2021/08/28 12:06:54;;;;;;;5.28;1.80;;;;;;;;;;5082225;28;20098;-79
2021/08/28 12:09:24;;;;;;;5.82;1.65;;;;;;;;;;5072412;28;20076;-78
2021/08/28 12:11:50;;;;;;;5.15;1.50;;;;;;;;;;5087564;28;20798;-79
2021/08/28 12:14:17;;;;;;;6.97;1.90;;;;;;;;;;5088285;28;20048;-77
2021/08/28 12:16:44;;;;;;;6.80;1.55;;;;;;;;;;5069555;28;20040;-79
2021/08/28 12:19:11;;;;;;;5.57;1.75;;;;;;;;;;5072688;28;20048;-77
2021/08/28 12:21:39;;;;;;;3.30;1.60;;;;;;;;;;5059369;28;20051;-78
2021/08/28 12:24:16;;;;;;;3.75;1.80;;;;;;;;;;5089512;28;20130;-78
2021/08/28 12:26:43;;;;;;;4.40;1.65;;;;;;;;;;5081517;28;20041;-76
2021/08/28 12:29:10;;;;;;;5.28;1.80;;;;;;;;;;5076167;28;20391;-78
2021/08/28 12:31:36;;;;;;;5.13;1.60;;;;;;;;;;5071084;28;20505;-77
2021/08/28 12:34:20;;;;;;;4.47;1.80;;;;;;;;;;5109053;28;20059;-78
2021/08/28 12:36:47;;;;;;;6.18;1.88;;;;;;;;;;5072370;28;20047;-78
2021/08/28 12:39:13;;;;;;;5.28;1.30;;;;;;;;;;5084421;28;20041;-79
2021/08/28 12:41:40;;;;;;;11.02;2.20;;;;;;;;;;5102928;28;20183;-78
2021/08/28 12:44:07;;;;;;;11.98;2.45;;;;;;;;;;5073498;28;20083;-77
2021/08/28 12:46:34;;;;;;;5.82;1.67;;;;;;;;;;5086879;28;20067;-79
2021/08/28 12:49:29;;;;;;;4.75;1.40;;;;;;;;;;5072436;28;20418;-79
2021/08/28 12:51:57;;;;;;;5.78;1.77;;;;;;;;;;5073967;28;20190;-78
2021/08/28 12:54:25;;;;;;;5.28;1.63;;;;;;;;;;5082491;28;20498;-80
2021/08/28 12:56:53;;;;;;;9.48;2.08;;;;;;;;;;5074320;28;20098;-79
2021/08/28 12:59:20;;;;;;;5.35;1.40;;;;;;;;;;5110382;28;20048;-78
2021/08/28 13:01:54;;;;;;;6.90;1.60;;;;;;;;;;5075435;28;20052;-78
2021/08/28 13:04:20;;;;;;;4.70;1.38;;;;;;;;;;5111103;27;20075;-78
2021/08/28 13:07:05;;;;;;;6.65;1.20;;;;;;;;;;5090743;28;20383;-80
2021/08/28 13:09:31;;;;;;;2.72;1.13;;;;;;;;;;5107148;27;20109;-79
2021/08/28 13:11:57;;;;;;;3.85;1.48;;;;;;;;;;5089436;28;20071;-78
2021/08/28 13:14:23;;;;;;;4.88;1.30;;;;;;;;;;5093321;28;20383;-79
2021/08/28 13:16:54;;;;;;;4.97;1.35;;;;;;;;;;5075567;28;20055;-79
2021/08/28 13:19:20;;;;;;;8.55;1.73;;;;;;;;;;5083780;28;20056;-80
2021/08/28 13:21:49;;;;;;;3.78;1.50;;;;;;;;;;5083172;28;20048;-78
2021/08/28 13:24:16;;;;;;;4.53;1.50;;;;;;;;;;5078834;28;20481;-77
2021/08/28 13:26:57;;;;;;;5.72;1.50;;;;;;;;;;5106507;28;20051;-78
2021/08/28 13:29:28;;;;;;;4.55;1.75;;;;;;;;;;5120657;27;20546;-78
2021/08/28 13:32:06;;;;;;;5.60;1.40;;;;;;;;;;5079354;28;20064;-78
2021/08/28 13:34:37;;;;;;;5.63;1.60;;;;;;;;;;5078292;28;20044;-79
2021/08/28 13:37:03;;;;;;;3.92;1.55;;;;;;;;;;5090248;28;20054;-78
2021/08/28 13:39:29;;;;;;;6.63;1.80;;;;;;;;;;5089271;28;20040;-79
2021/08/28 13:41:55;;;;;;;8.73;1.60;;;;;;;;;;5076986;28;20048;-79
2021/08/28 13:44:21;;;;;;;7.57;1.40;;;;;;;;;;5126088;27;20040;-76
2021/08/28 13:46:48;;;;;;;4.90;1.50;;;;;;;;;;5085290;28;20048;-78
2021/08/28 13:49:14;;;;;;;7.38;1.27;;;;;;;;;;5090417;28;20548;-78
2021/08/28 13:51:40;;;;;;;7.20;1.98;;;;;;;;;;5076258;28;20052;-78
2021/08/28 13:54:06;;;;;;;5.22;2.05;;;;;;;;;;5080898;28;20094;-79
2021/08/28 13:56:32;;;;;;;6.82;2.00;;;;;;;;;;5075136;28;20062;-78
2021/08/28 13:58:58;;;;;;;5.38;1.42;;;;;;;;;;5076461;28;20048;-77
2021/08/28 14:01:25;;;;;;;6.40;1.70;;;;;;;;;;5083209;28;20044;-79
2021/08/28 14:03:51;;;;;;;4.28;1.65;;;;;;;;;;5089203;28;20044;-78
2021/08/28 14:06:17;;;;;;;8.77;1.70;;;;;;;;;;5086067;28;20069;-78
2021/08/28 14:08:43;;;;;;;7.50;1.83;;;;;;;;;;5089401;28;20044;-77
2021/08/28 14:11:09;;;;;;;7.10;2.00;;;;;;;;;;5101758;28;20109;-78
2021/08/28 14:13:35;;;;;;;4.93;1.63;;;;;;;;;;5073197;28;20076;-78
2021/08/28 14:16:01;;;;;;;5.65;1.80;;;;;;;;;;5106160;27;20089;-78
2021/08/28 14:18:28;;;;;;;7.25;2.03;;;;;;;;;;5085222;28;20044;-80
2021/08/28 14:20:54;;;;;;;5.00;2.03;;;;;;;;;;5090080;28;20086;-79
2021/08/28 14:23:20;;;;;;;6.68;1.88;;;;;;;;;;5075511;28;20391;-78
2021/08/28 14:25:47;;;;;;;7.57;1.65;;;;;;;;;;5088660;28;20059;-77
2021/08/28 14:28:13;;;;;;;6.68;1.50;;;;;;;;;;5074381;28;20044;-79
2021/08/28 14:30:41;;;;;;;8.38;2.85;;;;;;;;;;5088351;28;20135;-78
2021/08/28 14:33:07;;;;;;;6.15;1.70;;;;;;;;;;5090687;28;20048;-79
2021/08/28 14:35:33;;;;;;;4.25;1.83;;;;;;;;;;5079434;28;20157;-77
2021/08/28 14:37:59;;;;;;;5.20;1.45;;;;;;;;;;5076247;28;20047;-76